Time;durP1;ratioP1;P1;durP2;ratioP2;P2;SDS_P1;SDS_P2;PMS_P1;PMS_P2;Temp;Humidity;BMP_temperature;BMP_pressure;BME280_temperature;BME280_humidity;BME280_pressure;Samples;Min_cycle;Max_cycle;Signal;HPM_P1;HPM_P2
2023/01/14 00:01:19;;;;;;;11.50;8.45;;;23.10;99.90;;;;;;4956900;29;20059;-58
2023/01/14 00:03:45;;;;;;;11.07;7.45;;;23.10;99.90;;;;;;4957011;29;20051;-57
2023/01/14 00:06:13;;;;;;;12.55;8.25;;;23.10;99.90;;;;;;4956953;29;20067;-58
2023/01/14 00:08:39;;;;;;;11.02;7.50;;;23.10;99.90;;;;;;4955610;29;20047;-58
2023/01/14 00:11:06;;;;;;;11.23;8.00;;;23.00;99.90;;;;;;4956843;29;20480;-57
2023/01/14 00:13:35;;;;;;;11.50;8.15;;;23.00;99.90;;;;;;4971127;28;20380;-58
2023/01/14 00:16:02;;;;;;;11.68;8.02;;;23.00;99.90;;;;;;4956749;29;20042;-57
2023/01/14 00:18:29;;;;;;;10.90;7.90;;;23.00;99.90;;;;;;4956801;29;20024;-58
2023/01/14 00:20:57;;;;;;;11.00;8.18;;;23.00;99.90;;;;;;4956668;29;20109;-58
2023/01/14 00:23:23;;;;;;;11.48;7.47;;;23.00;99.90;;;;;;4971355;28;20024;-57
2023/01/14 00:25:49;;;;;;;9.77;7.45;;;23.00;99.90;;;;;;4956420;29;20388;-58
2023/01/14 00:28:14;;;;;;;10.73;7.85;;;22.90;99.90;;;;;;4956769;29;20094;-58
2023/01/14 00:30:42;;;;;;;9.57;7.15;;;22.90;99.90;;;;;;4956543;29;20033;-58
2023/01/14 00:33:08;;;;;;;12.07;7.28;;;22.90;99.90;;;;;;4956568;29;20102;-58
2023/01/14 00:35:33;;;;;;;10.88;7.65;;;22.90;99.90;;;;;;4956783;29;20035;-59
2023/01/14 00:37:59;;;;;;;10.02;7.32;;;22.90;99.90;;;;;;4956390;29;20031;-58
2023/01/14 00:40:25;;;;;;;10.15;7.03;;;22.90;99.90;;;;;;4956312;29;20027;-58
2023/01/14 00:42:50;;;;;;;11.43;8.15;;;22.80;99.90;;;;;;4956403;29;20035;-58
2023/01/14 00:45:16;;;;;;;10.23;7.25;;;22.90;99.90;;;;;;4956418;29;20062;-58
2023/01/14 00:47:42;;;;;;;10.68;7.50;;;22.80;99.90;;;;;;4956204;29;20038;-57
2023/01/14 00:50:09;;;;;;;10.30;7.38;;;22.80;99.90;;;;;;4956253;29;20032;-59
2023/01/14 00:52:34;;;;;;;10.13;7.55;;;22.80;99.90;;;;;;4955969;29;20047;-59
2023/01/14 00:55:00;;;;;;;10.18;7.63;;;22.80;99.90;;;;;;4956116;29;20073;-61
2023/01/14 00:57:26;;;;;;;10.32;7.28;;;22.80;99.90;;;;;;4956092;29;20031;-61
2023/01/14 00:59:51;;;;;;;8.35;6.72;;;22.80;99.90;;;;;;4977995;23;20046;-58
2023/01/14 01:02:17;;;;;;;9.40;7.22;;;22.80;99.90;;;;;;4936993;29;20028;-58
2023/01/14 01:04:43;;;;;;;10.32;7.10;;;22.80;99.90;;;;;;4936679;29;20040;-58
2023/01/14 01:07:09;;;;;;;8.90;7.07;;;22.70;99.90;;;;;;4936834;29;20103;-58
2023/01/14 01:09:35;;;;;;;10.32;7.40;;;22.70;99.90;;;;;;4936619;29;20035;-57
2023/01/14 01:12:00;;;;;;;10.48;7.30;;;22.70;99.90;;;;;;4936570;29;20028;-57
2023/01/14 01:14:26;;;;;;;10.48;7.10;;;22.70;99.90;;;;;;4936642;29;20479;-59
2023/01/14 01:16:52;;;;;;;10.13;7.22;;;22.70;99.90;;;;;;4936544;29;20400;-58
2023/01/14 01:19:18;;;;;;;10.75;6.53;;;22.70;99.90;;;;;;4936639;29;20091;-58
2023/01/14 01:21:43;;;;;;;9.70;6.60;;;22.70;99.90;;;;;;4936488;29;20384;-59
2023/01/14 01:24:09;;;;;;;9.60;7.47;;;22.70;99.90;;;;;;4935162;29;20480;-56
2023/01/14 01:26:35;;;;;;;9.32;7.25;;;22.70;99.90;;;;;;4951051;28;20400;-58
2023/01/14 01:29:00;;;;;;;9.75;7.35;;;22.60;99.90;;;;;;4936416;29;20481;-58
2023/01/14 01:31:27;;;;;;;11.05;7.50;;;22.60;99.90;;;;;;4936319;29;20429;-58
2023/01/14 01:33:54;;;;;;;9.80;7.75;;;22.60;99.90;;;;;;4936250;29;20039;-57
2023/01/14 01:36:26;;;;;;;12.00;8.23;;;22.60;99.90;;;;;;4936450;29;20039;-58
2023/01/14 01:38:52;;;;;;;10.85;7.43;;;22.60;99.90;;;;;;4936249;29;20358;-57
2023/01/14 01:41:24;;;;;;;12.27;7.95;;;22.60;99.90;;;;;;4951011;29;20027;-58
2023/01/14 01:44:12;;;;;;;11.50;8.00;;;22.60;99.90;;;;;;4936166;29;20028;-57
2023/01/14 01:46:38;;;;;;;11.45;8.30;;;22.60;99.90;;;;;;4935948;29;20038;-57
2023/01/14 01:49:20;;;;;;;11.07;8.10;;;22.50;99.90;;;;;;4935940;29;20039;-57
2023/01/14 01:51:57;;;;;;;10.98;8.35;;;22.60;99.90;;;;;;4935945;29;20298;-57
2023/01/14 01:54:28;;;;;;;12.70;8.32;;;22.50;99.90;;;;;;4935848;29;20365;-57
2023/01/14 01:56:54;;;;;;;12.23;9.38;;;22.50;99.90;;;;;;4935691;29;20038;-57
2023/01/14 01:59:25;;;;;;;12.97;8.80;;;22.50;99.90;;;;;;4936405;29;20020;-57
2023/01/14 02:01:54;;;;;;;12.10;8.98;;;22.50;99.90;;;;;;4935970;29;20020;-56
2023/01/14 02:04:20;;;;;;;12.43;9.35;;;22.50;99.90;;;;;;4935905;29;20028;-57
2023/01/14 02:06:46;;;;;;;13.20;9.88;;;22.50;99.90;;;;;;4950348;29;20096;-57
2023/01/14 02:09:13;;;;;;;14.48;10.25;;;22.50;99.90;;;;;;4935659;29;20032;-56
2023/01/14 02:11:49;;;;;;;13.18;9.80;;;22.50;99.90;;;;;;4935756;29;20023;-57
2023/01/14 02:14:22;;;;;;;14.27;9.80;;;22.50;99.90;;;;;;4935620;29;20126;-57
2023/01/14 02:17:08;;;;;;;15.07;10.52;;;22.50;99.90;;;;;;4935450;29;20030;-56
2023/01/14 02:20:08;;;;;;;13.27;10.27;;;22.50;99.90;;;;;;4935447;29;20027;-55
2023/01/14 02:22:53;;;;;;;13.68;10.23;;;22.50;99.90;;;;;;4950117;29;20392;-56
2023/01/14 02:25:21;;;;;;;13.25;9.60;;;22.50;99.90;;;;;;4935440;29;20043;-56
2023/01/14 02:28:02;;;;;;;13.95;9.65;;;22.50;99.90;;;;;;4935400;29;20028;-56
2023/01/14 02:30:36;;;;;;;14.13;9.45;;;22.40;99.90;;;;;;4935457;29;20116;-56
2023/01/14 02:33:21;;;;;;;12.57;9.32;;;22.50;99.90;;;;;;4935159;29;20043;-56
2023/01/14 02:36:10;;;;;;;12.27;9.40;;;22.40;99.90;;;;;;4935356;29;20372;-55
2023/01/14 02:39:04;;;;;;;13.35;9.73;;;22.40;99.90;;;;;;4934671;29;20357;-56
2023/01/14 02:44:34;;;;;;;11.55;9.23;;;22.40;99.90;;;;;;4935251;29;20096;-56
2023/01/14 02:47:10;;;;;;;12.30;9.48;;;22.40;99.90;;;;;;4935365;29;20469;-57
2023/01/14 02:49:41;;;;;;;12.73;9.23;;;22.40;99.90;;;;;;4935130;29;20024;-57
2023/01/14 02:52:08;;;;;;;13.63;9.38;;;22.40;99.90;;;;;;4935103;29;20028;-57
2023/01/14 02:54:34;;;;;;;10.57;7.93;;;22.40;99.90;;;;;;4935186;29;20416;-56
2023/01/14 02:57:12;;;;;;;11.52;8.68;;;22.40;99.90;;;;;;4935090;29;20623;-57
2023/01/14 02:59:49;;;;;;;13.13;9.20;;;22.40;99.90;;;;;;4946518;23;21175;-47
2023/01/14 03:02:29;;;;;;;;;;;22.30;99.90;;;;;;4935515;29;20473;-47
2023/01/14 03:05:16;;;;;;;14.68;9.57;;;22.40;99.90;;;;;;4935163;29;19919;-48
2023/01/14 03:07:50;;;;;;;;;;;22.40;99.90;;;;;;4935281;29;20027;-47
2023/01/14 03:10:25;;;;;;;14.73;8.52;;;22.40;99.90;;;;;;4949263;29;19942;-47
2023/01/14 03:13:22;;;;;;;12.60;9.40;;;22.30;99.90;;;;;;4934908;29;20103;-46
2023/01/14 03:16:19;;;;;;;11.85;8.65;;;22.30;99.90;;;;;;4934868;29;20051;-46
2023/01/14 03:18:56;;;;;;;11.38;8.18;;;22.30;99.90;;;;;;4912383;29;20039;-46
2023/01/14 03:21:27;;;;;;;11.40;7.97;;;22.30;99.90;;;;;;4934578;29;20087;-46
2023/01/14 03:24:01;;;;;;;11.15;8.52;;;22.30;99.90;;;;;;4931434;29;20051;-47
2023/01/14 03:26:32;;;;;;;12.00;8.32;;;22.30;99.90;;;;;;4933521;29;20485;-48
2023/01/14 03:29:01;;;;;;;12.13;8.27;;;22.30;99.90;;;;;;4933712;29;20385;-46
2023/01/14 03:31:30;;;;;;;13.85;9.23;;;22.30;99.90;;;;;;4933340;29;20028;-45
2023/01/14 03:34:01;;;;;;;10.98;7.95;;;22.30;99.90;;;;;;4922550;29;20027;-46
2023/01/14 03:36:31;;;;;;;10.73;8.05;;;22.30;99.90;;;;;;4934385;29;20477;-46
2023/01/14 03:39:08;;;;;;;12.45;7.43;;;22.30;99.90;;;;;;4932968;29;20039;-46
2023/01/14 03:44:32;;;;;;;12.95;9.07;;;22.30;99.90;;;;;;4932621;29;20336;-47
2023/01/14 03:46:58;;;;;;;15.13;8.15;;;22.30;99.90;;;;;;4932629;29;20508;-46
2023/01/14 03:49:24;;;;;;;9.70;7.90;;;22.30;99.90;;;;;;4948292;28;20036;-46
2023/01/14 03:51:53;;;;;;;9.95;7.80;;;22.30;99.90;;;;;;4950655;29;20035;-47
2023/01/14 03:54:24;;;;;;;13.40;8.07;;;22.30;99.90;;;;;;4935918;29;20119;-46
2023/01/14 03:57:29;;;;;;;11.50;7.43;;;22.20;99.90;;;;;;4935838;29;20385;-46
2023/01/14 04:00:01;;;;;;;11.93;7.75;;;22.20;99.90;;;;;;4938370;23;20039;-56
2023/01/14 04:02:29;;;;;;;11.45;8.10;;;22.20;99.90;;;;;;4976730;28;20031;-56
2023/01/14 04:04:56;;;;;;;11.95;8.02;;;22.30;99.90;;;;;;4991782;28;20062;-58
2023/01/14 04:07:24;;;;;;;12.32;8.32;;;22.20;99.90;;;;;;4976470;28;20026;-59
2023/01/14 04:09:50;;;;;;;10.57;6.75;;;22.20;99.90;;;;;;4976319;28;20031;-59
2023/01/14 04:12:16;;;;;;;11.32;7.85;;;22.20;99.90;;;;;;4976248;28;20118;-59
2023/01/14 04:17:26;;;;;;;9.93;6.88;;;22.20;99.90;;;;;;4976394;28;20445;-59
2023/01/14 04:19:52;;;;;;;10.13;7.10;;;22.20;99.90;;;;;;4976095;28;20109;-58
2023/01/14 04:22:17;;;;;;;10.23;7.32;;;22.20;99.90;;;;;;4991347;28;20121;-59
2023/01/14 04:24:43;;;;;;;10.20;8.07;;;22.20;99.90;;;;;;4976007;28;20062;-58
2023/01/14 04:27:09;;;;;;;10.95;7.32;;;22.20;99.90;;;;;;4975979;28;20033;-58
2023/01/14 04:29:35;;;;;;;12.02;7.22;;;22.20;99.90;;;;;;4975967;28;20030;-56
2023/01/14 04:32:01;;;;;;;10.45;7.10;;;22.10;99.90;;;;;;4975832;28;20026;-56
2023/01/14 04:34:26;;;;;;;10.70;6.97;;;22.10;99.90;;;;;;4975961;28;20027;-59
2023/01/14 04:36:52;;;;;;;9.60;7.47;;;22.10;99.90;;;;;;4975820;28;20022;-57
2023/01/14 04:39:18;;;;;;;11.80;6.60;;;22.10;99.90;;;;;;4975688;28;20026;-56
2023/01/14 04:44:28;;;;;;;9.90;7.43;;;22.10;99.90;;;;;;4975948;28;20089;-58
2023/01/14 04:46:54;;;;;;;10.10;6.93;;;22.10;99.90;;;;;;4975503;28;20031;-60
2023/01/14 04:49:19;;;;;;;10.32;7.25;;;22.10;99.90;;;;;;4975604;28;20486;-59
2023/01/14 04:51:45;;;;;;;10.70;6.90;;;22.10;99.90;;;;;;4975480;28;20070;-55
2023/01/14 04:54:11;;;;;;;9.35;5.88;;;22.10;99.90;;;;;;4975446;28;20098;-58
2023/01/14 04:56:37;;;;;;;9.40;6.90;;;22.10;99.90;;;;;;4975488;28;20026;-60
2023/01/14 05:01:43;;;;;;;12.77;7.25;;;22.10;99.90;;;;;;4954948;29;20079;-49
2023/01/14 05:04:09;;;;;;;8.38;6.65;;;22.00;99.90;;;;;;4955891;29;20063;-48
2023/01/14 05:06:34;;;;;;;11.43;7.30;;;22.00;99.90;;;;;;4955836;29;20027;-48
2023/01/14 05:09:00;;;;;;;9.55;6.88;;;22.00;99.90;;;;;;4955941;29;20023;-48
2023/01/14 05:11:26;;;;;;;10.90;6.85;;;22.00;99.90;;;;;;4955795;29;20055;-49
2023/01/14 05:13:52;;;;;;;11.48;7.00;;;22.00;99.90;;;;;;4955843;29;20480;-48
2023/01/14 05:16:17;;;;;;;9.07;6.68;;;21.90;99.90;;;;;;4955779;29;20472;-48
2023/01/14 05:18:44;;;;;;;12.57;6.70;;;21.90;99.90;;;;;;4955727;29;20503;-48
2023/01/14 05:21:10;;;;;;;9.93;7.40;;;21.90;99.90;;;;;;4954437;29;20055;-48
2023/01/14 05:23:37;;;;;;;10.40;6.50;;;22.00;99.90;;;;;;4955572;29;20055;-48
2023/01/14 05:26:03;;;;;;;9.85;6.35;;;21.90;99.90;;;;;;4954341;29;20039;-48
2023/01/14 05:28:28;;;;;;;8.70;6.65;;;21.90;99.90;;;;;;4955652;29;20027;-48
2023/01/14 05:30:54;;;;;;;8.30;6.10;;;21.90;99.90;;;;;;4955379;29;20475;-46
2023/01/14 05:33:20;;;;;;;9.15;6.68;;;21.90;99.90;;;;;;4955327;29;20023;-46
2023/01/14 05:35:46;;;;;;;10.30;6.32;;;21.90;99.90;;;;;;4955236;29;20078;-46
2023/01/14 05:38:11;;;;;;;8.10;6.07;;;21.90;99.90;;;;;;4953998;29;20047;-46
2023/01/14 05:40:37;;;;;;;9.15;6.47;;;21.90;99.90;;;;;;4955331;29;20059;-46
2023/01/14 05:45:48;;;;;;;10.27;6.10;;;21.90;99.90;;;;;;4955066;29;20454;-46
2023/01/14 05:48:19;;;;;;;8.93;6.55;;;21.90;99.90;;;;;;4955173;29;20114;-46
2023/01/14 05:50:48;;;;;;;10.77;6.78;;;21.90;99.90;;;;;;4955075;29;20024;-47
2023/01/14 05:53:14;;;;;;;9.20;6.38;;;21.90;99.90;;;;;;4953785;29;20430;-47
2023/01/14 05:55:40;;;;;;;8.25;5.93;;;21.90;99.90;;;;;;4954942;29;20042;-47
2023/01/14 05:58:06;;;;;;;9.70;6.68;;;21.80;99.90;;;;;;4954947;29;20023;-47
2023/01/14 06:06:23;;;;;;;10.43;6.15;;;21.80;99.90;;;;;;4955006;29;20577;-47
2023/01/14 06:09:04;;;;;;;8.75;5.90;;;21.80;99.90;;;;;;4954715;29;20035;-47
2023/01/14 06:11:33;;;;;;;7.65;5.53;;;21.80;99.90;;;;;;4954242;28;20027;-47
2023/01/14 06:14:00;;;;;;;8.88;5.95;;;21.80;99.90;;;;;;4954521;29;20388;-47
2023/01/14 06:16:29;;;;;;;9.10;5.95;;;21.80;99.90;;;;;;4954618;29;20046;-47
2023/01/14 06:18:55;;;;;;;9.45;5.57;;;21.70;99.90;;;;;;4954586;29;20082;-47
2023/01/14 06:21:25;;;;;;;8.68;6.15;;;21.80;99.90;;;;;;4954632;29;20027;-47
2023/01/14 06:23:51;;;;;;;8.50;6.40;;;21.80;99.90;;;;;;4937929;29;20023;-47
2023/01/14 06:26:19;;;;;;;8.52;5.38;;;21.80;99.90;;;;;;4954644;29;20049;-46
2023/01/14 06:28:45;;;;;;;7.68;5.72;;;21.70;99.90;;;;;;4954535;29;20028;-46
2023/01/14 06:31:18;;;;;;;8.65;5.57;;;21.70;99.90;;;;;;4954430;29;20027;-46
2023/01/14 06:33:45;;;;;;;8.45;5.88;;;21.70;99.90;;;;;;4954400;29;20423;-46
2023/01/14 06:36:13;;;;;;;8.77;5.93;;;21.70;99.90;;;;;;4954233;29;20027;-46
2023/01/14 06:38:40;;;;;;;7.32;5.72;;;21.70;99.90;;;;;;4954333;29;20483;-46
2023/01/14 06:41:08;;;;;;;9.32;6.07;;;21.70;99.90;;;;;;4954457;29;20051;-46
2023/01/14 06:43:35;;;;;;;8.02;5.55;;;21.70;99.90;;;;;;4954441;29;20027;-46
2023/01/14 06:46:01;;;;;;;7.88;5.80;;;21.70;99.90;;;;;;4954150;29;20035;-47
2023/01/14 06:48:27;;;;;;;7.13;5.53;;;21.70;99.90;;;;;;4954190;29;20110;-46
2023/01/14 06:50:54;;;;;;;8.75;5.78;;;21.70;99.90;;;;;;4954124;29;20090;-46
2023/01/14 06:53:21;;;;;;;8.05;5.72;;;21.70;99.90;;;;;;4954143;29;20024;-46
2023/01/14 06:55:48;;;;;;;8.70;6.03;;;21.70;99.90;;;;;;4954301;29;20030;-47
2023/01/14 06:58:14;;;;;;;9.73;6.40;;;21.70;99.90;;;;;;4954273;29;20391;-46
2023/01/14 07:00:40;;;;;;;9.95;5.97;;;21.70;99.90;;;;;;4953930;29;20051;-46
2023/01/14 07:03:06;;;;;;;7.30;5.65;;;21.70;99.90;;;;;;4937218;29;20361;-46
2023/01/14 07:05:32;;;;;;;9.13;5.93;;;21.70;99.90;;;;;;4954012;29;20488;-46
2023/01/14 07:07:57;;;;;;;8.68;6.30;;;21.70;99.90;;;;;;4954023;29;20871;-46
2023/01/14 07:10:23;;;;;;;7.60;5.38;;;21.70;99.90;;;;;;4954043;29;20034;-46
2023/01/14 07:12:51;;;;;;;8.80;5.72;;;21.70;99.90;;;;;;4952609;29;20031;-46
2023/01/14 07:15:19;;;;;;;9.18;6.32;;;21.70;99.90;;;;;;4953918;29;20476;-46
2023/01/14 07:17:46;;;;;;;8.07;5.53;;;21.70;99.90;;;;;;4953946;29;20031;-46
2023/01/14 07:20:12;;;;;;;9.98;6.03;;;21.70;99.90;;;;;;4954043;29;20029;-47
2023/01/14 07:22:38;;;;;;;8.38;5.88;;;21.70;99.90;;;;;;4954061;28;20086;-47
2023/01/14 07:25:05;;;;;;;9.50;6.40;;;21.70;99.90;;;;;;4957657;29;20039;-48
2023/01/14 07:27:31;;;;;;;7.80;5.95;;;21.70;99.90;;;;;;4957563;29;20054;-47
2023/01/14 07:29:57;;;;;;;8.18;5.72;;;21.70;99.90;;;;;;4957705;29;20073;-48
2023/01/14 07:32:24;;;;;;;9.25;6.00;;;21.70;99.90;;;;;;4957658;29;20086;-47
2023/01/14 07:34:50;;;;;;;8.13;5.68;;;21.70;99.90;;;;;;4957546;29;20030;-47
2023/01/14 07:37:16;;;;;;;8.27;5.85;;;21.70;99.90;;;;;;4957587;29;20027;-47
2023/01/14 07:39:42;;;;;;;10.27;6.68;;;21.60;99.90;;;;;;4957384;29;20028;-48
2023/01/14 07:42:08;;;;;;;9.95;6.60;;;21.70;99.90;;;;;;4957733;29;20031;-48
2023/01/14 07:44:33;;;;;;;9.85;6.47;;;21.60;99.90;;;;;;4957244;29;20387;-48
2023/01/14 07:46:59;;;;;;;8.68;6.13;;;21.60;99.90;;;;;;4955870;29;20024;-47
2023/01/14 07:49:25;;;;;;;8.77;6.35;;;21.70;99.90;;;;;;4957301;29;20028;-47
2023/01/14 07:51:52;;;;;;;9.70;6.95;;;21.60;99.90;;;;;;4957234;29;20030;-47
2023/01/14 07:54:18;;;;;;;10.13;6.78;;;21.60;99.90;;;;;;4957090;29;20049;-47
2023/01/14 07:56:46;;;;;;;8.60;6.40;;;21.60;99.90;;;;;;4957235;29;20114;-46
2023/01/14 07:59:12;;;;;;;9.68;7.13;;;21.60;99.90;;;;;;4957140;29;20095;-48
2023/01/14 08:01:38;;;;;;;9.60;6.22;;;21.60;99.90;;;;;;4957121;29;20436;-48
2023/01/14 08:04:04;;;;;;;10.57;6.15;;;21.60;99.90;;;;;;4957093;29;20027;-47
2023/01/14 08:06:30;;;;;;;7.82;6.13;;;21.60;99.90;;;;;;4957074;29;20488;-48
2023/01/14 08:08:58;;;;;;;8.98;5.93;;;21.60;99.90;;;;;;4956737;29;20078;-48
2023/01/14 08:11:24;;;;;;;11.43;6.47;;;21.60;99.90;;;;;;4957015;29;20058;-48
2023/01/14 08:13:50;;;;;;;9.88;6.43;;;21.60;99.90;;;;;;4956943;29;20397;-48
2023/01/14 08:16:16;;;;;;;11.25;6.40;;;21.60;99.90;;;;;;4939733;29;20078;-48
2023/01/14 08:18:42;;;;;;;7.88;6.43;;;21.60;99.90;;;;;;4956754;29;20082;-47
2023/01/14 08:21:10;;;;;;;11.70;6.40;;;21.60;99.90;;;;;;4956853;29;20039;-47
2023/01/14 08:23:35;;;;;;;;;;;21.60;99.90;;;;;;4957094;29;20094;-47
2023/01/14 08:26:03;;;;;;;14.27;6.07;;;21.70;99.90;;;;;;4956623;29;20030;-47
2023/01/14 08:28:30;;;;;;;9.10;5.63;;;21.70;99.90;;;;;;4956567;29;20051;-47
2023/01/14 08:31:06;;;;;;;9.20;5.72;;;21.70;99.90;;;;;;4956369;29;20027;-47
2023/01/14 08:33:33;;;;;;;9.87;6.23;;;21.70;99.90;;;;;;4956451;29;20023;-47
2023/01/14 08:36:05;;;;;;;9.43;5.50;;;21.80;99.90;;;;;;4955707;28;20262;-47
2023/01/14 08:38:33;;;;;;;7.80;5.75;;;21.80;99.90;;;;;;4956515;29;20031;-47
2023/01/14 08:41:02;;;;;;;10.52;6.07;;;21.80;99.90;;;;;;4956365;29;20388;-47
2023/01/14 08:43:28;;;;;;;8.65;5.70;;;21.90;99.90;;;;;;4956364;29;20035;-47
2023/01/14 08:45:53;;;;;;;8.55;5.70;;;21.90;99.90;;;;;;4956213;29;20483;-47
2023/01/14 08:48:19;;;;;;;7.50;5.50;;;22.00;99.90;;;;;;4956477;29;20012;-48
2023/01/14 08:50:45;;;;;;;8.65;5.55;;;22.00;99.90;;;;;;4956240;29;20028;-47
2023/01/14 08:53:10;;;;;;;10.48;5.68;;;22.00;99.90;;;;;;4956280;29;20420;-47
2023/01/14 08:55:36;;;;;;;11.00;6.25;;;22.10;99.90;;;;;;4956063;29;20054;-48
2023/01/14 08:58:06;;;;;;;7.80;5.57;;;22.00;99.90;;;;;;4955863;29;20098;-48
2023/01/14 09:00:32;;;;;;;11.00;5.80;;;22.10;99.90;;;;;;4955759;29;20067;-47
2023/01/14 09:02:59;;;;;;;9.82;5.72;;;22.10;99.90;;;;;;4955898;29;20514;-47
2023/01/14 09:05:24;;;;;;;10.60;6.43;;;22.20;99.90;;;;;;4955879;29;20039;-48
2023/01/14 09:18:52;;;;;;;8.55;6.10;;;22.30;99.90;;;;;;4941142;29;20102;-48
2023/01/14 09:21:17;;;;;;;12.93;5.18;;;22.30;99.90;;;;;;4955636;29;20122;-48
2023/01/14 09:23:43;;;;;;;10.35;5.85;;;22.40;99.90;;;;;;4955719;29;20024;-48
2023/01/14 09:26:09;;;;;;;9.23;5.53;;;22.40;99.90;;;;;;4954020;29;20038;-48
2023/01/14 09:28:35;;;;;;;7.70;5.43;;;22.40;99.90;;;;;;4955482;29;20059;-48
2023/01/14 09:31:00;;;;;;;10.98;5.68;;;22.50;99.90;;;;;;4955326;29;20034;-47
2023/01/14 09:33:26;;;;;;;8.05;5.85;;;22.50;99.90;;;;;;4955378;29;20086;-47
2023/01/14 09:35:52;;;;;;;10.23;5.70;;;22.50;99.90;;;;;;4955222;29;20419;-48
2023/01/14 09:38:18;;;;;;;9.18;6.05;;;22.60;99.90;;;;;;4954024;29;20431;-48
2023/01/14 09:40:43;;;;;;;8.55;5.50;;;22.60;99.90;;;;;;4955509;29;20379;-48
2023/01/14 09:43:18;;;;;;;8.50;5.57;;;22.60;99.90;;;;;;4955225;29;20027;-47
2023/01/14 09:45:47;;;;;;;8.93;6.00;;;22.60;99.90;;;;;;4955227;28;20067;-47
2023/01/14 09:48:19;;;;;;;9.88;5.72;;;22.70;99.90;;;;;;4953937;29;20034;-48
2023/01/14 09:51:22;;;;;;;8.75;5.80;;;22.70;99.90;;;;;;4955210;29;20027;-47
2023/01/14 09:54:31;;;;;;;10.90;5.65;;;22.80;99.90;;;;;;4955037;29;20027;-48
2023/01/14 09:57:15;;;;;;;8.07;5.55;;;22.80;99.90;;;;;;4954555;29;20027;-48
2023/01/14 10:00:00;;;;;;;9.80;5.57;;;22.80;99.90;;;;;;4954551;29;20027;-48
2023/01/14 10:02:53;;;;;;;9.18;6.25;;;22.80;99.90;;;;;;4953747;29;20031;-48
2023/01/14 10:05:27;;;;;;;9.45;5.70;;;22.90;99.90;;;;;;4936477;29;20035;-48
2023/01/14 10:07:55;;;;;;;12.65;5.85;;;22.90;99.90;;;;;;4953431;29;20023;-47
2023/01/14 10:10:29;;;;;;;10.13;5.32;;;23.00;99.90;;;;;;4954687;29;20027;-47
2023/01/14 10:12:58;;;;;;;10.13;6.95;;;23.00;99.90;;;;;;4954220;29;20028;-46
2023/01/14 10:15:40;;;;;;;9.07;6.07;;;23.00;99.90;;;;;;4953972;29;20027;-48
2023/01/14 10:18:24;;;;;;;18.70;6.38;;;23.10;99.90;;;;;;4953914;29;20023;-46
2023/01/14 10:20:59;;;;;;;10.55;6.57;;;23.20;99.90;;;;;;4953214;29;20027;-49
2023/01/14 10:23:29;;;;;;;11.38;6.07;;;23.20;99.90;;;;;;4952161;29;20023;-48
2023/01/14 10:25:56;;;;;;;10.02;6.10;;;23.20;99.90;;;;;;4953891;29;20114;-50
2023/01/14 10:28:28;;;;;;;11.70;5.88;;;23.30;99.90;;;;;;4954047;29;20055;-50
2023/01/14 10:30:57;;;;;;;10.77;5.65;;;23.30;99.90;;;;;;4953838;29;20118;-47
2023/01/14 10:33:23;;;;;;;10.63;5.63;;;23.40;99.90;;;;;;4953405;29;20098;-46
2023/01/14 10:35:59;;;;;;;12.50;5.90;;;23.50;99.90;;;;;;4954116;29;20372;-48
2023/01/14 10:38:27;;;;;;;10.88;5.82;;;23.50;99.90;;;;;;4952145;29;20030;-49
2023/01/14 10:40:56;;;;;;;;;;;23.50;99.90;;;;;;4954094;29;20563;-47
2023/01/14 10:43:32;;;;;;;7.85;5.28;;;23.60;99.90;;;;;;4954166;29;19985;-50
2023/01/14 10:45:58;;;;;;;10.07;7.13;;;23.60;99.90;;;;;;4953911;29;20126;-51
2023/01/14 10:48:25;;;;;;;10.50;7.40;;;23.70;99.90;;;;;;4954301;29;20019;-50
2023/01/14 10:50:52;;;;;;;13.13;10.35;;;23.60;99.90;;;;;;4954181;29;20046;-49
2023/01/14 10:53:21;;;;;;;17.90;14.38;;;23.60;99.90;;;;;;4954370;29;20032;-50
2023/01/14 10:55:51;;;;;;;16.50;12.35;;;23.60;99.90;;;;;;4953769;29;20050;-50
2023/01/14 10:58:29;;;;;;;14.57;10.40;;;23.50;99.90;;;;;;4953325;29;20024;-54
2023/01/14 11:01:06;;;;;;;9.23;5.82;;;23.50;99.90;;;;;;4953874;29;20051;-50
2023/01/14 11:03:37;;;;;;;8.40;5.38;;;23.40;99.90;;;;;;4954044;29;20027;-49
2023/01/14 11:06:20;;;;;;;17.33;9.45;;;23.40;99.90;;;;;;4953914;29;20503;-49
2023/01/14 11:08:51;;;;;;;14.20;10.65;;;23.30;99.90;;;;;;4954168;29;20114;-48
2023/01/14 11:11:24;;;;;;;11.77;8.30;;;23.40;99.90;;;;;;4954195;29;20376;-49
2023/01/14 11:13:53;;;;;;;8.60;6.18;;;23.30;99.90;;;;;;4954261;29;20019;-49
2023/01/14 11:16:24;;;;;;;8.30;6.00;;;23.40;99.90;;;;;;4954236;29;20023;-50
2023/01/14 11:19:02;;;;;;;10.85;6.15;;;23.40;99.90;;;;;;4954185;29;20023;-49
2023/01/14 11:21:31;;;;;;;;;;;23.40;99.90;;;;;;4953776;29;20057;-50
2023/01/14 11:24:06;;;;;;;9.27;6.03;;;23.40;99.90;;;;;;4953557;29;19949;-50
2023/01/14 11:26:39;;;;;;;8.85;5.38;;;23.40;99.90;;;;;;4952838;29;20035;-49
2023/01/14 11:29:26;;;;;;;6.45;4.53;;;23.50;99.90;;;;;;4949336;29;20110;-49
2023/01/14 11:32:03;;;;;;;10.07;4.80;;;23.50;99.90;;;;;;4953930;29;20035;-49
2023/01/14 11:34:32;;;;;;;9.60;5.53;;;23.50;99.90;;;;;;4953943;29;20431;-49
2023/01/14 11:37:09;;;;;;;8.88;5.55;;;23.50;99.90;;;;;;4953626;29;20027;-50
2023/01/14 11:39:35;;;;;;;13.85;6.57;;;23.50;99.90;;;;;;4953840;29;20029;-50
2023/01/14 11:42:20;;;;;;;13.63;5.57;;;23.50;99.90;;;;;;4953705;29;20019;-50
2023/01/14 11:45:10;;;;;;;9.90;5.32;;;23.60;99.90;;;;;;4953365;29;20285;-50
2023/01/14 11:47:55;;;;;;;9.52;4.63;;;23.60;99.90;;;;;;4953721;29;20038;-50
2023/01/14 11:50:29;;;;;;;9.80;5.95;;;23.60;99.90;;;;;;4953776;29;20538;-50
2023/01/14 11:53:03;;;;;;;10.73;7.18;;;23.70;99.90;;;;;;4953550;29;20073;-51
2023/01/14 11:55:33;;;;;;;6.88;4.45;;;23.70;99.90;;;;;;4953458;29;20079;-50
2023/01/14 11:58:05;;;;;;;9.45;4.82;;;23.80;99.90;;;;;;4953366;29;20102;-49
2023/01/14 12:00:32;;;;;;;12.60;5.47;;;23.80;99.90;;;;;;4936400;29;20431;-49
2023/01/14 12:03:05;;;;;;;15.48;5.40;;;23.80;99.90;;;;;;4953532;29;20027;-50
2023/01/14 12:05:32;;;;;;;12.02;5.20;;;23.90;99.90;;;;;;4953406;29;20038;-48
2023/01/14 12:08:01;;;;;;;15.90;5.13;;;23.90;99.90;;;;;;4952277;29;20066;-48
2023/01/14 12:10:35;;;;;;;11.85;4.97;;;23.90;99.90;;;;;;4954347;28;20392;-48
2023/01/14 12:19:14;;;;;;;10.90;4.88;;;24.00;99.90;;;;;;4956586;29;20035;-49
2023/01/14 12:21:46;;;;;;;9.27;4.35;;;24.10;99.90;;;;;;4956446;29;20023;-48
2023/01/14 12:24:56;;;;;;;10.73;4.80;;;24.10;99.90;;;;;;4956340;29;20031;-48
2023/01/14 12:27:44;;;;;;;15.68;4.63;;;24.10;99.90;;;;;;4920427;29;20502;-49
2023/01/14 12:30:15;;;;;;;;;;;24.10;99.90;;;;;;4955845;29;20030;-49
2023/01/14 12:33:01;;;;;;;11.93;5.07;;;24.20;99.90;;;;;;4956540;29;19906;-49
2023/01/14 12:35:35;;;;;;;69.22;10.15;;;24.20;99.90;;;;;;4956299;29;20483;-49
2023/01/14 12:45:41;;;;;;;31.83;7.13;;;24.20;99.90;;;;;;4956031;29;20023;-48
2023/01/14 12:46:28;;;;;;;31.38;6.55;;;24.30;99.90;;;;;;4955714;29;20502;-47
2023/01/14 12:48:57;;;;;;;47.75;6.90;;;24.30;99.90;;;;;;4955821;29;20023;-47
2023/01/14 12:51:27;;;;;;;21.13;5.53;;;24.40;99.90;;;;;;4955107;29;20034;-47
2023/01/14 12:54:18;;;;;;;28.08;6.38;;;24.50;99.90;;;;;;4937202;29;20050;-47
2023/01/14 12:56:56;;;;;;;31.13;5.82;;;24.50;99.90;;;;;;4943936;29;20393;-47
2023/01/14 12:59:35;;;;;;;25.95;5.75;;;24.60;99.90;;;;;;4955261;29;20047;-47
2023/01/14 13:02:04;;;;;;;22.70;5.90;;;24.70;99.90;;;;;;4955051;29;20035;-47
2023/01/14 13:04:39;;;;;;;20.77;5.15;;;24.70;99.90;;;;;;4955155;29;20042;-51
2023/01/14 13:07:07;;;;;;;21.75;5.15;;;24.70;99.90;;;;;;4955971;29;20404;-52
2023/01/14 13:09:48;;;;;;;10.45;4.88;;;24.80;99.90;;;;;;4955924;29;20428;-51
2023/01/14 13:12:25;;;;;;;7.93;4.60;;;24.80;99.90;;;;;;4955871;29;20516;-51
2023/01/14 13:14:54;;;;;;;7.38;4.18;;;24.80;99.90;;;;;;4955944;29;20031;-50
2023/01/14 13:17:38;;;;;;;8.63;4.35;;;24.80;99.90;;;;;;4955736;29;20110;-52
2023/01/14 13:20:19;;;;;;;6.60;3.75;;;24.80;99.90;;;;;;4955811;29;20019;-50
2023/01/14 13:22:46;;;;;;;10.60;4.18;;;24.80;99.90;;;;;;4955506;28;20491;-49
2023/01/14 13:25:34;;;;;;;5.93;3.67;;;24.80;99.90;;;;;;4955513;29;20038;-51
2023/01/14 13:28:20;;;;;;;8.20;3.83;;;24.80;99.90;;;;;;4955187;29;20070;-51
2023/01/14 13:31:02;;;;;;;6.10;3.33;;;24.80;99.90;;;;;;4955435;29;20031;-51
2023/01/14 13:33:32;;;;;;;10.20;4.10;;;24.80;99.90;;;;;;4955578;29;20031;-50
2023/01/14 13:36:10;;;;;;;8.50;4.43;;;24.80;99.90;;;;;;4955506;29;20047;-51
2023/01/14 13:38:57;;;;;;;5.72;3.75;;;24.90;99.90;;;;;;4955395;29;20550;-52
2023/01/14 13:41:39;;;;;;;9.43;4.43;;;24.80;99.90;;;;;;4955507;29;20098;-51
2023/01/14 13:44:17;;;;;;;8.50;4.30;;;24.90;99.90;;;;;;4955325;29;20027;-46
2023/01/14 13:46:47;;;;;;;8.48;3.92;;;24.90;99.90;;;;;;4953243;29;20031;-50